airplane image

note

electronics

Fly Music What-else

 

 

 

 

LSZB - Flugwetter Bern

[Source: ADDS]
METAR
LSZB 201020Z 30005KT 9999 FEW070 BKN090 05/M02 Q1011 NOSIG =
TAF
LSZB 200825Z 2009/2018 28006KT 9999 SCT050 BKN070 TEMPO 2014/2018 24015G25KT 4000 RASN BKN020 PROB30 TEMPO 2014/2018 2000 SN BKN009 =

LSZG - Flugwetter Grenchen

[Source: ADDS]
METAR
LSZG 201020Z 24008KT 9999 FEW011 BKN019 03/02 Q1012 NOSIG =
TAF
LSZG 200825Z 2009/2018 24012G25KT 9999 SCT020 BKN050 TEMPO 2009/2012 SHRA BKN014 TEMPO 2012/2018 24018G40KT RA PROB40 TEMPO 2015/2018 4000 SNRA BKN014 =

LSZH - Flugwetter Zürich

[Source: ADDS]
METAR
LSZH 201020Z 22004KT 150V270 9999 FEW025 BKN065 04/M00 Q1011 NOSIG =
TAF
LSZH 200825Z 2009/2115 24009KT 9999 FEW018 SCT030 BKN035 TX04/2014Z TN01/2115Z TX04/2103Z PROB40 TEMPO 2009/2011 3000 RASN BKN012 TEMPO 2015/2024 4000 RASN BKN014 PROB30 TEMPO 2015/2019 1000 SN VV006 TEMPO 2018/2101 25015G32KT =